Mineral Point, WI

11:20 AM CST on November 13, 2019 (GMT -0600)
Iowa County

Weather History for KMRJ - October, 2019

Change the Weather History Date:

Tuesday, October 15, 2019

  Actual Average (KLNR) Record (KLNR)
Temperature  
Mean Temperature 49 °F -  
Max Temperature 59 °F 58 °F 77 °F (1999)
Min Temperature 39 °F 36 °F 21 °F (2006)
Degree Days  
Heating Degree Days 16    
Moisture  
Dew Point 39 °F    
Average Humidity 71    
Maximum Humidity 81    
Minimum Humidity 62    
Precipitation  
Precipitation 0.00 in - - ()
Sea Level Pressure  
Sea Level Pressure 29.82 in    
Wind  
Wind Speed 10 mph (SW)    
Max Wind Speed 22 mph    
Max Gust Speed 29 mph    
Visibility 10 miles    
Events Rain    
Averages and records for this station are not official NWS values.
T = Trace of Precipitation, MM = Missing Value Source: NWS Daily Summary

Daily Weather History Graph

Daily Weather History Graph

Search for Another Location

Airport or City:

Astronomy

Oct. 15, 2019 Rise Set
Actual Time 7:14 AM CDT 6:18 PM CDT
Civil Twilight 6:45 AM CDT 6:47 PM CDT
Nautical Twilight 6:12 AM CDT 7:20 PM CDT
Astronomical Twilight 5:39 AM CDT 7:52 PM CDT
Moon 7:36 PM CDT (10/15) 8:46 AM CDT (10/15)
Length of Visible Light 12h 01m
Length of Day
11h 04m
Full, 97% of the Moon is Illuminated
Oct 15
Full
Oct 21
Last Quarter
Oct 27
New
Nov 4
First Quarter
Nov 12
Full

Hourly Weather History & Observations

Time (CDT) Temp. Windchill Dew Point Humidity Pressure Visibility Wind Dir Wind Speed Gust Speed Precip Events Conditions
12:15 AM 41.0 °F 38.0 °F 33.8 °F 76% 30.00 in 10.0 mi SE 4.6 mph - N/A   Clear
12:35 AM 41.0 °F 38.0 °F 33.8 °F 76% 29.99 in 10.0 mi ESE 4.6 mph - N/A   Clear
12:55 AM 41.0 °F 36.4 °F 33.8 °F 76% 29.98 in 10.0 mi ESE 6.9 mph - N/A   Clear
1:15 AM 39.2 °F 33.6 °F 33.8 °F 81% 29.97 in 10.0 mi SE 8.1 mph - N/A   Clear
1:35 AM 41.0 °F 36.4 °F 33.8 °F 76% 29.97 in 10.0 mi SE 6.9 mph - N/A   Clear
1:55 AM 41.0 °F 35.8 °F 33.8 °F 76% 29.96 in 10.0 mi SE 8.1 mph - N/A   Clear
2:15 AM 41.0 °F 35.2 °F 35.6 °F 81% 29.95 in 10.0 mi SE 9.2 mph - N/A   Clear
2:35 AM 41.0 °F 36.4 °F 35.6 °F 81% 29.94 in 10.0 mi SE 6.9 mph - N/A   Clear
2:55 AM 41.0 °F 35.8 °F 35.6 °F 81% 29.93 in 10.0 mi SE 8.1 mph - N/A   Clear
3:15 AM 41.0 °F 35.8 °F 35.6 °F 81% 29.92 in 10.0 mi SE 8.1 mph - N/A   Clear
3:35 AM 41.0 °F 35.2 °F 35.6 °F 81% 29.90 in 10.0 mi SE 9.2 mph - N/A   Clear
3:55 AM 42.8 °F 37.5 °F 35.6 °F 76% 29.89 in 10.0 mi SE 9.2 mph - N/A   Clear
4:15 AM 42.8 °F 37.0 °F 35.6 °F 76% 29.88 in 10.0 mi SE 10.4 mph - N/A   Mostly Cloudy
4:35 AM 44.6 °F 38.4 °F 35.6 °F 71% 29.86 in 10.0 mi SSE 12.7 mph - N/A   Overcast
4:55 AM 44.6 °F 38.4 °F 37.4 °F 76% 29.86 in 10.0 mi SE 12.7 mph - N/A Rain Light Rain
5:15 AM 44.6 °F 39.2 °F 37.4 °F 76% 29.85 in 10.0 mi SE 10.4 mph - N/A   Overcast
5:35 AM 44.6 °F 39.7 °F 37.4 °F 76% 29.84 in 10.0 mi SE 9.2 mph 17.3 mph N/A   Overcast
5:55 AM 44.6 °F 38.8 °F 37.4 °F 76% 29.82 in 10.0 mi SE 11.5 mph - N/A   Overcast
6:15 AM 46.4 °F 41.1 °F 37.4 °F 71% 29.81 in 10.0 mi SSE 11.5 mph - N/A   Overcast
6:35 AM 46.4 °F 40.7 °F 37.4 °F 71% 29.81 in 10.0 mi SSE 12.7 mph - N/A   Overcast
6:55 AM 44.6 °F 39.2 °F 37.4 °F 76% 29.80 in 10.0 mi SSE 10.4 mph - N/A   Overcast
7:15 AM 44.6 °F 39.7 °F 37.4 °F 76% 29.80 in 10.0 mi SSE 9.2 mph - N/A   Mostly Cloudy
7:35 AM 44.6 °F 39.2 °F 37.4 °F 76% 29.79 in 10.0 mi SSE 10.4 mph - N/A   Overcast
7:55 AM 44.6 °F 39.2 °F 37.4 °F 76% 29.79 in 10.0 mi SSE 10.4 mph - N/A   Overcast
8:15 AM 44.6 °F 39.7 °F 39.2 °F 81% 29.78 in 10.0 mi SSE 9.2 mph - N/A   Mostly Cloudy
8:35 AM 46.4 °F 41.9 °F 39.2 °F 76% 29.78 in 10.0 mi SSE 9.2 mph - N/A   Overcast
8:55 AM 46.4 °F 42.9 °F 41.0 °F 81% 29.78 in 10.0 mi SSE 6.9 mph - N/A   Overcast
9:15 AM 46.4 °F 41.9 °F 41.0 °F 81% 29.77 in 10.0 mi SSE 9.2 mph - N/A   Overcast
9:35 AM 50.0 °F - 41.0 °F 71% 29.76 in 10.0 mi SSE 8.1 mph - N/A   Scattered Clouds
9:55 AM 51.8 °F - 42.8 °F 71% 29.75 in 10.0 mi SSE 9.2 mph - N/A   Clear
10:15 AM 53.6 °F - 42.8 °F 67% 29.74 in 10.0 mi South 9.2 mph - N/A   Clear
10:35 AM 53.6 °F - 44.6 °F 72% 29.74 in 10.0 mi South 6.9 mph - N/A   Clear
10:55 AM 55.4 °F - 46.4 °F 72% 29.72 in 10.0 mi SSW 9.2 mph - N/A   Clear
11:15 AM 57.2 °F - 46.4 °F 67% 29.73 in 10.0 mi SW 13.8 mph - N/A   Scattered Clouds
11:35 AM 55.4 °F - 46.4 °F 72% 29.73 in 10.0 mi WSW 10.4 mph 17.3 mph N/A   Mostly Cloudy
11:55 AM 55.4 °F - 46.4 °F 72% 29.72 in 10.0 mi WSW 8.1 mph - N/A   Overcast
12:15 PM 59.0 °F - 46.4 °F 63% 29.71 in 10.0 mi SW 11.5 mph 16.1 mph N/A   Mostly Cloudy
12:35 PM 59.0 °F - 46.4 °F 63% 29.72 in 10.0 mi WSW 12.7 mph 18.4 mph N/A   Mostly Cloudy
12:55 PM 59.0 °F - 46.4 °F 63% 29.71 in 10.0 mi WSW 11.5 mph - N/A   Overcast
1:15 PM 59.0 °F - 46.4 °F 63% 29.71 in 10.0 mi West 8.1 mph 17.3 mph N/A   Overcast
1:35 PM 59.0 °F - 46.4 °F 63% 29.70 in 10.0 mi West 12.7 mph 20.7 mph N/A   Overcast
1:55 PM 57.2 °F - 46.4 °F 67% 29.70 in 10.0 mi West 13.8 mph 20.7 mph N/A   Overcast
2:15 PM 57.2 °F - 46.4 °F 67% 29.70 in 10.0 mi West 16.1 mph 20.7 mph N/A   Overcast
2:35 PM 55.4 °F - 44.6 °F 67% 29.70 in 10.0 mi West 19.6 mph 25.3 mph N/A   Overcast
2:55 PM 53.6 °F - 42.8 °F 67% 29.72 in 10.0 mi West 20.7 mph 25.3 mph N/A   Overcast
3:15 PM 51.8 °F - 42.8 °F 71% 29.73 in 10.0 mi WNW 17.3 mph 23.0 mph N/A   Mostly Cloudy
3:35 PM 51.8 °F - 41.0 °F 67% 29.74 in 10.0 mi WNW 13.8 mph 19.6 mph N/A   Overcast
3:55 PM 51.8 °F - 41.0 °F 67% 29.75 in 10.0 mi West 16.1 mph 20.7 mph N/A   Overcast
4:15 PM 51.8 °F - 41.0 °F 67% 29.75 in 10.0 mi West 12.7 mph 21.9 mph N/A   Overcast
4:35 PM 51.8 °F - 41.0 °F 67% 29.76 in 10.0 mi West 13.8 mph 25.3 mph N/A   Overcast
4:55 PM 51.8 °F - 41.0 °F 67% 29.77 in 10.0 mi WNW 13.8 mph 21.9 mph N/A   Overcast
5:15 PM 50.0 °F - 41.0 °F 71% 29.77 in 10.0 mi West 18.4 mph 28.8 mph N/A   Overcast
5:35 PM 50.0 °F - 41.0 °F 71% 29.79 in 10.0 mi WNW 21.9 mph 28.8 mph N/A   Overcast
5:55 PM 48.2 °F - 37.4 °F 66% 29.80 in 10.0 mi WNW 18.4 mph 26.5 mph N/A   Overcast
6:15 PM 48.2 °F - 37.4 °F 66% 29.81 in 10.0 mi NW 18.4 mph 27.6 mph N/A   Overcast
6:35 PM 48.2 °F - 37.4 °F 66% 29.82 in 10.0 mi NW 13.8 mph 23.0 mph N/A   Overcast
6:55 PM 48.2 °F - 37.4 °F 66% 29.82 in 10.0 mi NW 15.0 mph 20.7 mph N/A   Overcast
7:15 PM 48.2 °F - 35.6 °F 62% 29.82 in 10.0 mi WNW 13.8 mph 26.5 mph N/A   Mostly Cloudy
7:35 PM 46.4 °F 40.4 °F 35.6 °F 66% 29.83 in 10.0 mi NW 13.8 mph 20.7 mph N/A   Overcast
7:55 PM 46.4 °F 40.7 °F 35.6 °F 66% 29.83 in 10.0 mi WNW 12.7 mph 24.2 mph N/A   Overcast
8:15 PM 46.4 °F 39.8 °F 35.6 °F 66% 29.83 in 10.0 mi NW 16.1 mph 23.0 mph N/A   Overcast
8:35 PM 46.4 °F 40.4 °F 35.6 °F 66% 29.84 in 10.0 mi WNW 13.8 mph 25.3 mph N/A   Overcast
8:55 PM 46.4 °F 41.5 °F 35.6 °F 66% 29.84 in 10.0 mi WNW 10.4 mph 19.6 mph N/A   Overcast
9:15 PM 44.6 °F 38.8 °F 33.8 °F 66% 29.85 in 10.0 mi NW 11.5 mph 20.7 mph N/A   Mostly Cloudy
9:35 PM 44.6 °F 38.8 °F 35.6 °F 71% 29.85 in 10.0 mi WNW 11.5 mph 19.6 mph N/A   Mostly Cloudy
9:55 PM 44.6 °F 36.9 °F 35.6 °F 71% 29.85 in 10.0 mi WNW 18.4 mph 25.3 mph N/A   Overcast
10:15 PM 44.6 °F 37.8 °F 35.6 °F 71% 29.86 in 10.0 mi WNW 15.0 mph 24.2 mph N/A   Overcast
10:35 PM 44.6 °F 38.4 °F 35.6 °F 71% 29.87 in 10.0 mi NW 12.7 mph 21.9 mph N/A   Overcast
10:55 PM 44.6 °F 38.8 °F 35.6 °F 71% 29.87 in 10.0 mi NW 11.5 mph 19.6 mph N/A   Overcast
11:15 PM 44.6 °F 38.1 °F 35.6 °F 71% 29.87 in 10.0 mi NW 13.8 mph 24.2 mph N/A   Overcast
11:35 PM 44.6 °F 38.1 °F 35.6 °F 71% 29.87 in 10.0 mi WNW 13.8 mph 20.7 mph N/A   Overcast
11:55 PM 44.6 °F 37.8 °F 35.6 °F 71% 29.88 in 10.0 mi NW 15.0 mph 23.0 mph N/A   Overcast